Neesea Larae — WDG3605 — position and weather

sailwx.info

Track history (hours):
 
Tides and Currents Weather Stations Pressure Air Temp Water Temp Dewpoint Dewpoint Depression Visibility Wind Speed Wind Dir Waves Ship Positions

Neesea Larae

Owner: RONALD WILLIAM COLEMAN AND DENISE LARAE COLEMAN TRUSTREES OF THE COLEMAN LIVING TRUST, SHORELINE, WA. More information available from US FCC via Universal Licensing System and Coast Guard Vessel Documentation Center.

Last reported at 2015-May-04 15:33 UTC. Time now 2015-May-06 20:32 UTC.
Position N 47°48' W 122°24'.

Type: Pleasure craft. MMSI: 367527770.

Date/timePositionNaut miles runAvg speedWind from/ knotsBaromVisibWave heightAir tempDewpointWater temp
2015-May-04 15:33N 47°48' W 122°24'4 5.8
2015-May-04 14:51N 47°45' W 122°25'4 9.8
2015-May-04 14:30N 47°41' W 122°25'0 8.1
2015-May-04 14:26N 47°41' W 122°25'2 0.1
2015-May-03 19:50N 47°39' W 122°23'  
2015-Apr-29 22:17N 47°39' W 122°20'2 5.7
2015-Apr-29 22:00N 47°39' W 122°22'1 2.4
2015-Apr-29 21:27N 47°40' W 122°24'0 0.0
2015-Apr-29 21:15N 47°40' W 122°24'0 0.3
2015-Apr-29 20:31N 47°40' W 122°24'1 1.3
2015-Apr-29 20:05N 47°40' W 122°25'5 9.3
2015-Apr-29 19:30N 47°46' W 122°24'0 0.0
2015-Apr-29 19:30N 47°46' W 122°24'  
2015-Apr-27 04:33N 47°52' W 122°22'8 8.3
2015-Apr-27 03:33N 47°59' W 122°15'1 0.4
2015-Apr-27 00:25N 47°59' W 122°14'7 8.7
2015-Apr-26 23:33N 47°54' W 122°21'5 0.2
2015-Apr-25 23:05N 47°49' W 122°23'  
Track history (hours):
 
Tides and Currents Weather Stations Pressure Air Temp Water Temp Dewpoint Dewpoint Depression Visibility Wind Speed Wind Dir Waves Ship Positions

Neesea Larae

Owner: RONALD WILLIAM COLEMAN AND DENISE LARAE COLEMAN TRUSTREES OF THE COLEMAN LIVING TRUST, SHORELINE, WA. More information available from US FCC via Universal Licensing System and Coast Guard Vessel Documentation Center.

Last reported at 2015-May-04 15:33 UTC. Time now 2015-May-06 20:32 UTC.
Position N 47°48' W 122°24'.

Type: Pleasure craft. MMSI: 367527770.

Date/timePositionNaut miles runAvg speedWind from/ knotsBaromVisibWave heightAir tempDewpointWater temp
2015-May-04 15:33N 47°48' W 122°24'4 5.8
2015-May-04 14:51N 47°45' W 122°25'4 9.8
2015-May-04 14:30N 47°41' W 122°25'0 8.1
2015-May-04 14:26N 47°41' W 122°25'2 0.1
2015-May-03 19:50N 47°39' W 122°23'  
2015-Apr-29 22:17N 47°39' W 122°20'2 5.7
2015-Apr-29 22:00N 47°39' W 122°22'1 2.4
2015-Apr-29 21:27N 47°40' W 122°24'0 0.0
2015-Apr-29 21:15N 47°40' W 122°24'0 0.3
2015-Apr-29 20:31N 47°40' W 122°24'1 1.3
2015-Apr-29 20:05N 47°40' W 122°25'5 9.3
2015-Apr-29 19:30N 47°46' W 122°24'0 0.0
2015-Apr-29 19:30N 47°46' W 122°24'  
2015-Apr-27 04:33N 47°52' W 122°22'8 8.3
2015-Apr-27 03:33N 47°59' W 122°15'1 0.4
2015-Apr-27 00:25N 47°59' W 122°14'7 8.7
2015-Apr-26 23:33N 47°54' W 122°21'5 0.2
2015-Apr-25 23:05N 47°49' W 122°23'  

Dump ship's entire track history